Time;durP1;ratioP1;P1;durP2;ratioP2;P2;SDS_P1;SDS_P2;PMS_P1;PMS_P2;Temp;Humidity;BMP_temperature;BMP_pressure;BME280_temperature;BME280_humidity;BME280_pressure;Samples;Min_cycle;Max_cycle;Signal;HPM_P1;HPM_P2
2022/05/25 00:02:05;;;;;;;14.80;9.10;;;;;;;12.96;100.00;99363.52;105225;1271;73246;-66
2022/05/25 00:04:54;;;;;;;15.70;9.30;;;;;;;12.95;100.00;99363.27;104818;1272;60645;-64
2022/05/25 00:07:41;;;;;;;16.40;10.10;;;;;;;12.94;100.00;99358.41;104889;1271;61111;-68
2022/05/25 00:10:27;;;;;;;17.00;10.40;;;;;;;12.92;100.00;99353.95;104880;1271;71673;-63
2022/05/25 00:13:13;;;;;;;17.90;10.00;;;;;;;12.92;100.00;99351.69;105129;1271;68258;-64
2022/05/25 00:16:00;;;;;;;16.10;10.20;;;;;;;12.90;100.00;99347.70;105154;1271;73837;-65
2022/05/25 00:21:52;;;;;;;17.60;11.20;;;;;;;12.89;100.00;99331.61;105115;1271;62127;-66
2022/05/25 00:24:39;;;;;;;16.90;11.10;;;;;;;12.91;100.00;99324.54;105082;1271;71948;-63
2022/05/25 00:27:25;;;;;;;16.40;10.40;;;;;;;12.92;100.00;99301.08;105041;1271;70018;-64
2022/05/25 00:30:14;;;;;;;19.70;12.00;;;;;;;12.94;100.00;99288.22;105058;1271;74282;-63
2022/05/25 00:33:02;;;;;;;15.70;10.40;;;;;;;12.98;100.00;99304.63;105245;1271;59889;-63
2022/05/25 00:35:48;;;;;;;15.50;10.00;;;;;;;12.99;100.00;99308.64;104880;1271;60592;-66
2022/05/25 00:38:36;;;;;;;19.20;11.30;;;;;;;12.95;100.00;99309.02;105059;1271;73730;-64
2022/05/25 00:41:26;;;;;;;17.50;11.00;;;;;;;12.93;100.00;99313.47;104967;1271;68515;-65
2022/05/25 00:44:13;;;;;;;16.30;10.60;;;;;;;12.91;100.00;99305.84;105086;1271;74530;-64
2022/05/25 00:47:00;;;;;;;18.30;11.10;;;;;;;12.89;100.00;99305.46;105064;1271;59291;-65
2022/05/25 00:49:47;;;;;;;16.90;11.10;;;;;;;12.86;100.00;99310.91;104886;1271;62156;-65
2022/05/25 00:52:34;;;;;;;17.80;11.10;;;;;;;12.81;100.00;99315.33;105034;1271;74193;-63
2022/05/25 00:55:28;;;;;;;17.60;10.90;;;;;;;12.75;100.00;99307.80;105098;1271;69592;-63
2022/05/25 00:58:14;;;;;;;16.80;11.10;;;;;;;12.68;100.00;99310.39;105102;1271;74313;-64
2022/05/25 01:01:01;;;;;;;16.50;10.20;;;;;;;12.62;100.00;99312.66;105044;1270;60343;-63
2022/05/25 01:03:48;;;;;;;17.00;10.70;;;;;;;12.56;100.00;99313.37;105042;1271;59783;-63
2022/05/25 01:06:59;;;;;;;19.30;11.70;;;;;;;12.52;100.00;99311.80;105070;1268;74212;-64
2022/05/25 01:10:10;;;;;;;16.40;11.20;;;;;;;12.50;100.00;99320.73;105311;1271;68793;-68
2022/05/25 01:13:02;;;;;;;16.80;11.00;;;;;;;12.48;100.00;99320.42;105161;1271;74424;-63
2022/05/25 01:16:37;;;;;;;17.20;12.20;;;;;;;12.47;100.00;99320.81;105189;1271;59874;-65
2022/05/25 01:19:42;;;;;;;15.70;11.10;;;;;;;12.47;100.00;99319.61;104781;1271;61676;-65
2022/05/25 01:23:05;;;;;;;19.40;12.10;;;;;;;12.46;100.00;99312.96;105241;1271;72914;-63
2022/05/25 01:26:24;;;;;;;17.60;10.40;;;;;;;12.46;100.00;99317.90;104889;1271;68531;-64
2022/05/25 01:29:51;;;;;;;18.60;11.60;;;;;;;12.47;100.00;99319.05;104858;1271;74324;-64
2022/05/25 01:32:45;;;;;;;17.90;11.50;;;;;;;12.47;100.00;99328.29;104856;1271;60365;-63
2022/05/25 01:36:00;;;;;;;19.20;12.00;;;;;;;12.46;100.00;99329.24;105023;1271;61495;-63
2022/05/25 01:39:01;;;;;;;16.70;11.30;;;;;;;12.45;100.00;99335.77;104810;1271;73303;-63
2022/05/25 01:42:18;;;;;;;20.20;13.30;;;;;;;12.41;100.00;99340.73;104845;1271;69514;-65
2022/05/25 01:45:08;;;;;;;20.70;12.20;;;;;;;12.40;100.00;99338.38;105018;1271;72147;-65
2022/05/25 01:47:57;;;;;;;18.00;12.80;;;;;;;12.40;100.00;99341.44;104803;1271;61290;-64
2022/05/25 01:50:56;;;;;;;19.30;14.10;;;;;;;12.41;100.00;99341.30;104855;1271;62144;-64
2022/05/25 01:53:50;;;;;;;18.30;13.00;;;;;;;12.45;100.00;99344.48;104853;1271;72460;-67
2022/05/25 01:56:40;;;;;;;18.10;13.30;;;;;;;12.48;100.00;99349.69;105093;1271;67916;-66
2022/05/25 01:59:27;;;;;;;19.80;13.70;;;;;;;12.53;100.00;99351.94;104882;1271;73264;-68
2022/05/25 02:05:21;;;;;;;19.00;13.40;;;;;;;12.59;100.00;99347.07;104966;1271;59393;-66
2022/05/25 02:08:33;;;;;;;19.70;13.00;;;;;;;12.62;100.00;99346.27;104832;1271;71720;-64
2022/05/25 02:11:31;;;;;;;20.80;13.10;;;;;;;12.64;100.00;99347.31;104990;1271;68586;-66
2022/05/25 02:14:36;;;;;;;18.60;12.70;;;;;;;12.68;100.00;99354.91;104863;1271;72127;-68
2022/05/25 02:17:32;;;;;;;19.00;12.70;;;;;;;12.70;100.00;99360.01;105016;1271;59771;-68
2022/05/25 02:20:56;;;;;;;18.80;12.00;;;;;;;12.70;100.00;99366.67;104923;1271;60569;-66
2022/05/25 02:24:09;;;;;;;17.60;12.50;;;;;;;12.70;100.00;99371.08;104902;1271;71966;-68
2022/05/25 02:27:09;;;;;;;18.20;12.40;;;;;;;12.71;100.00;99370.42;104884;1271;66760;-66
2022/05/25 02:30:10;;;;;;;20.20;12.70;;;;;;;12.73;100.00;99371.45;105114;1271;73651;-65
2022/05/25 02:33:17;;;;;;;20.30;12.60;;;;;;;12.78;100.00;99372.46;105028;1271;60300;-68
2022/05/25 02:36:06;;;;;;;18.60;12.60;;;;;;;12.84;100.00;99362.08;104941;1271;59294;-69
2022/05/25 02:38:53;;;;;;;18.00;12.10;;;;;;;12.90;100.00;99357.38;104738;1274;71443;-69
2022/05/25 02:41:55;;;;;;;18.40;11.90;;;;;;;12.94;100.00;99356.29;104753;1274;67883;-69
2022/05/25 02:44:43;;;;;;;17.30;12.30;;;;;;;12.94;100.00;99358.39;104726;1274;73192;-66
2022/05/25 02:47:30;;;;;;;19.60;13.00;;;;;;;12.94;100.00;99360.69;104760;1274;60930;-64
2022/05/25 02:50:17;;;;;;;18.30;11.90;;;;;;;12.98;100.00;99369.49;104988;1274;59489;-67
2022/05/25 02:53:04;;;;;;;18.50;13.50;;;;;;;12.97;100.00;99374.34;104834;1274;74148;-66
2022/05/25 02:55:51;;;;;;;18.70;12.20;;;;;;;12.97;100.00;99380.74;104993;1274;67985;-69
2022/05/25 02:58:38;;;;;;;18.70;12.10;;;;;;;12.95;100.00;99381.65;104585;1274;74142;-67
2022/05/25 03:01:26;;;;;;;19.40;12.80;;;;;;;12.92;100.00;99382.05;104741;1274;59532;-67
2022/05/25 03:04:14;;;;;;;20.40;13.50;;;;;;;12.92;100.00;99381.75;104795;1274;59486;-67
2022/05/25 03:07:01;;;;;;;21.50;13.90;;;;;;;12.92;100.00;99386.86;104702;1274;73109;-64
2022/05/25 03:09:47;;;;;;;21.60;13.30;;;;;;;12.94;100.00;99394.39;104924;1271;67640;-65
2022/05/25 03:12:34;;;;;;;20.90;14.10;;;;;;;12.96;100.00;99397.22;105416;1271;72272;-63
2022/05/25 03:15:21;;;;;;;20.90;13.40;;;;;;;12.98;100.00;99399.88;105396;1270;59978;-64
2022/05/25 03:18:08;;;;;;;22.30;14.20;;;;;;;12.99;100.00;99400.14;105037;1271;62038;-64
2022/05/25 03:20:55;;;;;;;24.00;14.50;;;;;;;13.00;100.00;99400.40;104921;1271;72981;-63
2022/05/25 03:23:41;;;;;;;27.80;15.10;;;;;;;13.00;100.00;99407.01;105187;1271;67416;-65
2022/05/25 03:26:28;;;;;;;24.30;14.80;;;;;;;13.00;100.00;99418.00;104915;1271;74421;-64
2022/05/25 03:29:17;;;;;;;27.40;15.60;;;;;;;12.99;100.00;99422.90;105008;1274;61268;-63
2022/05/25 03:32:05;;;;;;;30.90;16.80;;;;;;;12.98;100.00;99436.70;104915;1271;60510;-63
2022/05/25 03:34:51;;;;;;;27.60;15.30;;;;;;;12.99;100.00;99440.77;104928;1271;72977;-65
2022/05/25 03:37:38;;;;;;;28.60;16.00;;;;;;;13.00;100.00;99441.90;104944;1270;68759;-65
2022/05/25 03:40:25;;;;;;;23.50;13.60;;;;;;;13.02;100.00;99440.29;104809;1271;74327;-64
2022/05/25 03:43:15;;;;;;;32.70;18.10;;;;;;;13.02;100.00;99448.80;104881;1271;60298;-64
2022/05/25 03:46:02;;;;;;;32.10;17.60;;;;;;;13.02;100.00;99452.30;105025;1271;62111;-60
2022/05/25 03:48:51;;;;;;;28.50;16.90;;;;;;;13.02;100.00;99451.50;104925;1271;72920;-64
2022/05/25 03:51:39;;;;;;;26.70;16.30;;;;;;;12.99;100.00;99455.54;104948;1271;69584;-64
2022/05/25 03:54:26;;;;;;;30.50;18.00;;;;;;;12.95;100.00;99463.31;104993;1271;73327;-64
2022/05/25 03:57:12;;;;;;;28.70;17.40;;;;;;;12.92;100.00;99462.71;105018;1271;59773;-68
2022/05/25 03:59:59;;;;;;;30.20;19.00;;;;;;;12.90;100.00;99463.13;104460;1276;60330;-64
2022/05/25 04:02:46;;;;;;;24.20;15.70;;;;;;;12.86;100.00;99469.23;105000;1274;73876;-65
2022/05/25 04:05:34;;;;;;;31.60;18.40;;;;;;;12.85;100.00;99461.29;104939;1274;69486;-66
2022/05/25 04:08:20;;;;;;;27.70;17.20;;;;;;;12.88;100.00;99462.60;104675;1274;73579;-66
2022/05/25 04:11:07;;;;;;;25.60;16.20;;;;;;;12.93;100.00;99461.92;104650;1274;59664;-67
2022/05/25 04:13:53;;;;;;;25.50;15.00;;;;;;;12.99;100.00;99464.61;104732;1274;62339;-66
2022/05/25 04:16:43;;;;;;;24.90;16.00;;;;;;;13.06;100.00;99465.16;104878;1274;73976;-65
2022/05/25 04:19:30;;;;;;;24.60;15.90;;;;;;;13.16;100.00;99471.30;104879;1274;68656;-66
2022/05/25 04:22:17;;;;;;;23.40;14.20;;;;;;;13.30;100.00;99474.06;104655;1274;74702;-63
2022/05/25 04:25:10;;;;;;;27.00;14.90;;;;;;;13.46;100.00;99469.79;104624;1274;61258;-64
2022/05/25 04:27:57;;;;;;;22.50;13.90;;;;;;;13.66;100.00;99470.68;104977;1274;60405;-64
2022/05/25 04:30:44;;;;;;;19.70;12.60;;;;;;;13.77;100.00;99471.17;104665;1271;75811;-64
2022/05/25 04:33:31;;;;;;;19.20;12.50;;;;;;;13.88;100.00;99474.90;105044;1271;66521;-67
2022/05/25 04:36:17;;;;;;;20.30;11.20;;;;;;;13.97;100.00;99476.45;105263;1271;72524;-66
2022/05/25 04:39:03;;;;;;;17.90;10.60;;;;;;;14.06;100.00;99479.21;105019;1271;59804;-64
2022/05/25 04:41:50;;;;;;;16.30;9.90;;;;;;;14.12;100.00;99483.56;104783;1271;60527;-66
2022/05/25 04:44:37;;;;;;;18.70;9.90;;;;;;;14.14;100.00;99487.46;104999;1270;72356;-65
2022/05/25 04:47:23;;;;;;;15.00;7.90;;;;;;;14.16;99.97;99485.98;104980;1271;69491;-63
2022/05/25 04:50:13;;;;;;;15.60;9.20;;;;;;;14.20;99.90;99486.84;104957;1271;72220;-64
2022/05/25 04:53:02;;;;;;;15.30;8.90;;;;;;;14.28;99.68;99496.36;104847;1271;59903;-64
2022/05/25 04:58:55;;;;;;;12.10;7.30;;;;;;;14.92;97.17;99498.01;104992;1271;73952;-64
2022/05/25 05:01:42;;;;;;;15.40;9.60;;;;;;;15.10;95.19;99496.97;104937;1271;68535;-64
2022/05/25 05:04:28;;;;;;;12.00;7.30;;;;;;;15.28;93.75;99489.75;104959;1271;73140;-69
2022/05/25 05:07:18;;;;;;;13.40;6.90;;;;;;;15.51;93.07;99486.02;105115;1271;59888;-68
2022/05/25 05:10:06;;;;;;;13.00;7.70;;;;;;;16.06;90.11;99479.91;105364;1271;59878;-68
2022/05/25 05:12:52;;;;;;;10.30;5.90;;;;;;;17.10;86.67;99482.40;105408;1271;72803;-69
2022/05/25 05:15:48;;;;;;;10.40;5.30;;;;;;;18.24;80.10;99478.70;105309;1271;552245;-72
2022/05/25 05:18:37;;;;;;;9.00;4.90;;;;;;;19.31;75.91;99474.68;105057;1271;73787;-72
2022/05/25 05:21:41;;;;;;;9.30;4.90;;;;;;;19.75;70.28;99465.80;104912;1271;59691;-69
2022/05/25 05:24:30;;;;;;;7.80;3.50;;;;;;;20.09;67.97;99464.27;104920;1271;60494;-72
2022/05/25 05:27:17;;;;;;;7.80;3.80;;;;;;;19.64;66.98;99467.68;105187;1271;72943;-71
2022/05/25 05:30:07;;;;;;;8.10;4.00;;;;;;;19.67;67.52;99469.92;104956;1271;68708;-69
2022/05/25 05:32:53;;;;;;;7.40;3.50;;;;;;;19.86;67.14;99469.08;104852;1271;73413;-70
2022/05/25 05:35:45;;;;;;;7.60;3.40;;;;;;;20.27;64.10;99465.83;105074;1271;59309;-70
2022/05/25 05:38:36;;;;;;;7.60;3.60;;;;;;;21.44;62.26;99470.55;105024;1271;61025;-69
2022/05/25 05:41:29;;;;;;;7.70;3.30;;;;;;;22.15;59.24;99470.34;105144;1270;72489;-69
2022/05/25 05:44:22;;;;;;;6.50;2.90;;;;;;;23.39;55.91;99465.61;105353;1271;66769;-71
2022/05/25 05:47:16;;;;;;;6.60;2.60;;;;;;;24.50;52.35;99462.98;105460;1271;74534;-68
2022/05/25 05:50:08;;;;;;;7.20;3.90;;;;;;;25.72;47.69;99464.39;104995;1271;60643;-70
2022/05/25 05:52:54;;;;;;;6.70;2.60;;;;;;;26.84;44.85;99457.17;105313;1271;60372;-70
2022/05/25 05:55:44;;;;;;;7.60;2.50;;;;;;;27.01;43.01;99461.59;105367;1271;72796;-72
2022/05/25 05:58:31;;;;;;;7.10;3.10;;;;;;;26.48;43.30;99477.30;104977;1271;67959;-71
2022/05/25 06:01:18;;;;;;;7.60;3.20;;;;;;;25.59;44.56;99477.29;105291;1271;72076;-70
2022/05/25 06:04:06;;;;;;;7.50;3.40;;;;;;;24.77;45.22;99477.90;104956;1271;59222;-71
2022/05/25 06:06:52;;;;;;;6.00;2.60;;;;;;;24.02;47.32;99483.72;105035;1271;61566;-71
2022/05/25 06:09:39;;;;;;;8.90;3.50;;;;;;;23.29;48.11;99476.75;105242;1270;72922;-70
2022/05/25 06:12:27;;;;;;;7.20;3.30;;;;;;;22.88;50.18;99479.02;105081;1271;69883;-70
2022/05/25 06:21:25;;;;;;;6.90;3.40;;;;;;;22.83;50.23;99490.17;105053;1271;60679;-70
2022/05/25 06:24:12;;;;;;;7.80;3.40;;;;;;;22.53;51.39;99500.43;105125;1271;72700;-72
2022/05/25 06:26:59;;;;;;;8.20;3.10;;;;;;;22.01;52.22;99505.65;105086;1271;69291;-71
2022/05/25 06:29:48;;;;;;;7.40;3.10;;;;;;;21.81;53.33;99510.84;105019;1271;72839;-70
2022/05/25 06:32:36;;;;;;;6.80;3.60;;;;;;;21.79;53.35;99513.04;104941;1271;59279;-73
2022/05/25 06:35:23;;;;;;;7.70;4.20;;;;;;;21.28;54.53;99523.64;105018;1271;61067;-71
2022/05/25 06:38:10;;;;;;;7.90;3.80;;;;;;;21.05;54.49;99519.23;104914;1271;71421;-72
2022/05/25 06:40:58;;;;;;;7.20;3.10;;;;;;;20.46;55.80;99508.15;105076;1271;68763;-70
2022/05/25 06:43:46;;;;;;;7.50;3.40;;;;;;;20.01;57.52;99514.23;105031;1271;73367;-64
2022/05/25 06:46:32;;;;;;;8.60;4.50;;;;;;;19.70;59.31;99522.30;104818;1271;60940;-72
2022/05/25 06:49:19;;;;;;;8.00;3.60;;;;;;;19.42;60.43;99526.86;105514;1271;60451;-69
2022/05/25 06:52:09;;;;;;;8.40;4.60;;;;;;;19.03;61.84;99534.35;105101;1271;72897;-68
2022/05/25 06:54:57;;;;;;;8.30;4.30;;;;;;;18.51;63.22;99536.33;104831;1274;68588;-69
2022/05/25 06:57:43;;;;;;;9.30;4.20;;;;;;;18.18;64.33;99534.89;105042;1271;74605;-71
2022/05/25 07:00:30;;;;;;;8.50;4.20;;;;;;;18.19;64.94;99536.69;105124;1271;59396;-69
2022/05/25 07:03:16;;;;;;;8.80;4.10;;;;;;;18.08;65.52;99534.06;104955;1271;60597;-68
2022/05/25 07:06:06;;;;;;;7.80;3.90;;;;;;;17.90;65.89;99532.50;105110;1271;72899;-66
2022/05/25 07:08:53;;;;;;;7.80;4.00;;;;;;;17.76;66.80;99538.69;105085;1271;69741;-66
2022/05/25 07:11:42;;;;;;;7.20;3.40;;;;;;;17.66;67.28;99538.55;105341;1271;74357;-68
2022/05/25 07:14:28;;;;;;;7.60;4.00;;;;;;;17.62;67.18;99545.13;105083;1271;59736;-72
2022/05/25 07:17:15;;;;;;;8.50;4.30;;;;;;;17.53;67.60;99547.06;105072;1271;59881;-69
2022/05/25 07:20:03;;;;;;;9.30;4.40;;;;;;;17.50;68.13;99549.51;105131;1271;72833;-69
2022/05/25 07:22:50;;;;;;;8.50;4.30;;;;;;;17.66;68.57;99552.38;105119;1271;69384;-70
2022/05/25 07:25:36;;;;;;;9.20;4.20;;;;;;;18.00;68.04;99561.17;105116;1271;73401;-71
2022/05/25 07:28:23;;;;;;;7.50;3.90;;;;;;;18.43;65.89;99558.58;105060;1271;59396;-72
2022/05/25 07:31:27;;;;;;;9.20;4.80;;;;;;;18.56;65.19;99564.14;105079;1271;59703;-69
2022/05/25 07:34:29;;;;;;;8.10;4.20;;;;;;;18.76;65.00;99553.86;105052;1271;72292;-72
2022/05/25 07:37:22;;;;;;;8.30;4.00;;;;;;;20.10;61.01;99556.37;105276;1271;69579;-70
2022/05/25 07:40:25;;;;;;;8.40;3.70;;;;;;;21.29;56.90;99560.80;105078;1271;73235;-70
2022/05/25 07:43:17;;;;;;;7.30;3.20;;;;;;;22.40;54.45;99564.23;105037;1271;59600;-68
2022/05/25 07:46:04;;;;;;;7.90;3.60;;;;;;;23.43;50.01;99567.86;104881;1271;60989;-69
2022/05/25 07:48:51;;;;;;;7.90;3.10;;;;;;;23.82;48.10;99562.55;105010;1271;72921;-67
2022/05/25 07:51:38;;;;;;;7.10;3.50;;;;;;;24.17;46.91;99572.42;104994;1271;68779;-66
2022/05/25 07:54:24;;;;;;;7.70;3.10;;;;;;;24.07;46.01;99573.70;105040;1271;72403;-67
2022/05/25 07:57:12;;;;;;;7.00;3.40;;;;;;;23.92;46.26;99578.02;105318;1271;59377;-69
2022/05/25 08:00:01;;;;;;;7.20;3.00;;;;;;;23.29;47.02;99580.82;105003;1271;60446;-72
2022/05/25 08:05:59;;;;;;;7.20;3.50;;;;;;;22.84;48.25;99590.70;105120;1271;66593;-66
2022/05/25 08:08:45;;;;;;;9.80;3.20;;;;;;;22.39;49.29;99602.46;105129;1271;75169;-69
2022/05/25 08:11:34;;;;;;;7.40;3.50;;;;;;;22.44;50.20;99600.98;105192;1270;59904;-65
2022/05/25 08:14:25;;;;;;;8.30;3.30;;;;;;;22.43;49.79;99604.79;105137;1271;60571;-62
2022/05/25 08:17:11;;;;;;;8.00;3.10;;;;;;;22.01;50.83;99608.55;105174;1270;72793;-65
2022/05/25 08:19:58;;;;;;;7.20;2.90;;;;;;;21.52;51.24;99609.77;105037;1271;68232;-67
2022/05/25 08:22:45;;;;;;;7.30;3.50;;;;;;;20.88;52.17;99615.17;104905;1271;74430;-70
2022/05/25 08:25:32;;;;;;;7.20;3.10;;;;;;;20.31;53.54;99621.42;105075;1271;59304;-68
2022/05/25 08:28:19;;;;;;;8.60;3.80;;;;;;;19.91;54.52;99626.52;105066;1271;60976;-69
2022/05/25 08:31:06;;;;;;;7.90;3.40;;;;;;;19.59;54.88;99623.43;105234;1271;73237;-72
2022/05/25 08:33:53;;;;;;;7.00;3.30;;;;;;;19.28;55.52;99634.18;105088;1271;68615;-72
2022/05/25 08:36:39;;;;;;;8.00;3.70;;;;;;;19.12;55.07;99631.89;105036;1271;73823;-70
2022/05/25 08:39:25;;;;;;;7.50;3.10;;;;;;;19.21;55.66;99633.98;105056;1271;59284;-68
2022/05/25 08:42:15;;;;;;;8.10;3.40;;;;;;;19.61;55.18;99634.19;105055;1271;59518;-68
2022/05/25 08:45:03;;;;;;;8.10;3.70;;;;;;;19.79;54.66;99631.61;104800;1271;73340;-72
2022/05/25 08:47:55;;;;;;;9.10;4.00;;;;;;;19.82;54.31;99634.23;104799;1271;68040;-73
2022/05/25 08:50:45;;;;;;;12.00;3.10;;;;;;;19.75;54.47;99633.23;105066;1271;73392;-74
2022/05/25 08:53:34;;;;;;;7.80;3.40;;;;;;;19.64;54.65;99636.68;105032;1271;59577;-75
2022/05/25 08:56:39;;;;;;;8.00;3.70;;;;;;;19.47;53.89;99634.02;105132;1271;59284;-73
2022/05/25 09:00:09;;;;;;;7.30;3.50;;;;;;;19.35;54.29;99635.40;105115;1271;73038;-69
2022/05/25 09:03:26;;;;;;;7.60;3.70;;;;;;;19.27;54.00;99634.01;104695;1277;68709;-71
2022/05/25 09:06:35;;;;;;;6.60;3.00;;;;;;;19.23;54.10;99630.55;104383;1277;73433;-73
2022/05/25 09:09:41;;;;;;;6.90;3.00;;;;;;;19.18;53.46;99633.27;104391;1277;59361;-67
2022/05/25 09:12:44;;;;;;;7.30;3.10;;;;;;;19.14;53.34;99638.44;104410;1279;60401;-72
2022/05/25 09:16:15;;;;;;;6.60;3.10;;;;;;;19.05;53.63;99639.17;104425;1279;72901;-71
2022/05/25 09:19:15;;;;;;;8.60;3.20;;;;;;;18.99;53.96;99637.77;104322;1279;69955;-71
2022/05/25 09:22:08;;;;;;;9.10;3.30;;;;;;;18.92;54.21;99634.97;104269;1279;73415;-74
2022/05/25 09:24:59;;;;;;;8.00;3.20;;;;;;;18.88;54.61;99641.87;104413;1280;59454;-74
2022/05/25 09:28:14;;;;;;;8.10;3.30;;;;;;;18.81;54.16;99646.45;105167;1277;61800;-70
2022/05/25 09:31:03;;;;;;;7.90;3.50;;;;;;;18.66;54.44;99651.12;104365;1280;72747;-68
2022/05/25 09:33:58;;;;;;;8.10;3.30;;;;;;;18.59;54.78;99651.08;104413;1277;68375;-65
2022/05/25 09:36:59;;;;;;;8.10;3.00;;;;;;;18.50;54.68;99650.17;104211;1280;74388;-62
2022/05/25 09:39:51;;;;;;;7.50;3.40;;;;;;;18.35;55.35;99654.80;104908;1271;59408;-65
2022/05/25 09:42:37;;;;;;;6.70;3.10;;;;;;;18.18;56.30;99661.05;104998;1271;62130;-66
2022/05/25 09:45:36;;;;;;;7.80;3.30;;;;;;;18.10;56.49;99661.14;105013;1271;73206;-65
2022/05/25 09:48:26;;;;;;;7.50;3.60;;;;;;;18.03;56.99;99662.05;104956;1271;68422;-65
2022/05/25 09:51:41;;;;;;;7.20;3.10;;;;;;;18.03;57.16;99663.59;104810;1271;73277;-66
2022/05/25 09:54:41;;;;;;;8.80;4.10;;;;;;;18.08;58.47;99662.55;105039;1271;59538;-65
2022/05/25 09:57:36;;;;;;;8.30;3.40;;;;;;;18.14;57.92;99658.27;105089;1271;60625;-66
2022/05/25 10:00:33;;;;;;;8.40;3.30;;;;;;;18.18;57.99;99656.00;104833;1271;71785;-65
2022/05/25 10:03:43;;;;;;;8.00;3.90;;;;;;;18.15;57.65;99654.90;104887;1271;69588;-67
2022/05/25 10:06:50;;;;;;;9.90;3.90;;;;;;;17.98;57.15;99657.20;104996;1271;71863;-64
2022/05/25 10:09:48;;;;;;;10.10;3.90;;;;;;;17.90;57.86;99659.05;105226;1271;60141;-67
2022/05/25 10:12:43;;;;;;;8.70;3.40;;;;;;;17.85;57.55;99656.53;104964;1273;60569;-64
2022/05/25 10:15:36;;;;;;;7.70;3.80;;;;;;;17.80;57.93;99661.31;105063;1271;72933;-64
2022/05/25 10:18:40;;;;;;;7.50;3.40;;;;;;;17.78;57.92;99668.45;104850;1271;69626;-66
2022/05/25 10:21:34;;;;;;;9.10;3.70;;;;;;;17.77;58.07;99668.18;104771;1271;73188;-66
2022/05/25 10:24:34;;;;;;;7.10;3.30;;;;;;;17.75;57.45;99674.17;104756;1273;59307;-64
2022/05/25 10:27:30;;;;;;;8.10;3.70;;;;;;;17.65;57.93;99673.48;104874;1274;60395;-66
2022/05/25 10:37:17;;;;;;;7.10;3.10;;;;;;;17.53;59.96;99680.67;105039;1270;73789;-65
2022/05/25 10:40:07;;;;;;;8.70;3.00;;;;;;;17.47;61.05;99682.36;104823;1271;60808;-64
2022/05/25 10:42:58;;;;;;;7.60;3.10;;;;;;;17.39;61.79;99683.80;104746;1271;60025;-65
2022/05/25 10:45:51;;;;;;;7.00;3.30;;;;;;;17.38;62.36;99679.83;104891;1274;71838;-65
2022/05/25 10:49:03;;;;;;;7.10;3.30;;;;;;;17.38;62.26;99673.73;104997;1271;68694;-66
2022/05/25 10:51:56;;;;;;;7.20;3.50;;;;;;;17.39;62.11;99672.95;105010;1271;74747;-64
2022/05/25 10:54:46;;;;;;;7.30;3.20;;;;;;;17.40;62.39;99668.00;104906;1271;59396;-63
2022/05/25 10:58:12;;;;;;;7.60;3.00;;;;;;;17.45;62.14;99671.11;105206;1271;60736;-62
2022/05/25 11:01:30;;;;;;;7.30;3.50;;;;;;;17.49;62.19;99678.32;104701;1274;73063;-66
2022/05/25 11:04:26;;;;;;;7.90;3.40;;;;;;;17.47;61.72;99679.14;104982;1271;66612;-68
2022/05/25 11:07:42;;;;;;;7.90;3.80;;;;;;;17.51;62.00;99678.66;104802;1271;74301;-67
2022/05/25 11:11:07;;;;;;;8.80;3.80;;;;;;;17.59;62.17;99681.95;104710;1271;61815;-64
2022/05/25 11:15:01;;;;;;;7.70;3.50;;;;;;;17.67;61.85;99682.61;104828;1269;62135;-65
2022/05/25 11:18:43;;;;;;;7.30;3.70;;;;;;;17.70;60.25;99682.64;104484;1279;73839;-64
2022/05/25 11:22:09;;;;;;;7.60;3.50;;;;;;;17.68;59.27;99682.98;104212;1280;68719;-63
2022/05/25 11:25:26;;;;;;;7.30;3.50;;;;;;;17.67;58.93;99680.43;104242;1279;73394;-68
2022/05/25 11:28:27;;;;;;;8.10;3.80;;;;;;;17.63;58.67;99682.88;104476;1280;59388;-67
2022/05/25 11:31:46;;;;;;;7.90;3.50;;;;;;;17.59;59.24;99682.08;104339;1278;60498;-66
2022/05/25 11:35:02;;;;;;;7.90;3.70;;;;;;;17.45;60.15;99684.46;104331;1279;74020;-64
2022/05/25 11:37:59;;;;;;;8.60;3.50;;;;;;;17.42;60.74;99683.73;104259;1279;69395;-65
2022/05/25 11:41:10;;;;;;;8.80;3.20;;;;;;;17.40;60.50;99676.00;104267;1279;74423;-64
2022/05/25 11:44:33;;;;;;;8.60;3.20;;;;;;;17.41;60.28;99673.77;104470;1279;59356;-65
2022/05/25 11:47:26;;;;;;;8.70;3.80;;;;;;;17.22;59.60;99677.94;104399;1279;60635;-66
2022/05/25 11:50:38;;;;;;;8.40;3.10;;;;;;;17.07;60.46;99678.08;104306;1279;73239;-64
2022/05/25 11:53:27;;;;;;;8.50;3.50;;;;;;;17.03;60.90;99678.34;104340;1274;66632;-62
2022/05/25 11:56:30;;;;;;;8.10;3.60;;;;;;;17.10;60.86;99676.69;105196;1271;73159;-63
2022/05/25 11:59:54;;;;;;;7.30;3.50;;;;;;;17.26;60.89;99676.15;105624;1271;59288;-63
2022/05/25 12:03:39;;;;;;;8.30;3.60;;;;;;;17.46;60.33;99674.23;105266;1271;60299;-65
2022/05/25 12:06:53;;;;;;;8.60;3.40;;;;;;;17.66;59.49;99681.27;104024;1285;73923;-64
2022/05/25 12:10:07;;;;;;;7.90;2.90;;;;;;;17.78;59.31;99680.65;103990;1285;67078;-63
2022/05/25 12:13:21;;;;;;;7.70;3.30;;;;;;;17.84;58.85;99681.27;103949;1285;74810;-66
2022/05/25 12:16:36;;;;;;;9.00;3.40;;;;;;;17.76;59.15;99677.34;103944;1285;59453;-65
2022/05/25 12:19:30;;;;;;;7.40;3.40;;;;;;;17.63;59.89;99678.84;103861;1285;60484;-65
2022/05/25 12:22:23;;;;;;;9.50;3.50;;;;;;;17.55;60.21;99677.36;103804;1285;72606;-64
2022/05/25 12:25:15;;;;;;;8.00;3.50;;;;;;;17.51;60.29;99675.27;103705;1285;69465;-67
2022/05/25 12:28:03;;;;;;;10.10;3.40;;;;;;;17.50;60.57;99673.36;103705;1285;73469;-62
2022/05/25 12:30:57;;;;;;;8.40;3.60;;;;;;;17.54;60.59;99673.63;103757;1285;59446;-65
2022/05/25 12:33:45;;;;;;;8.00;3.70;;;;;;;17.62;60.38;99671.92;103931;1285;60492;-65
2022/05/25 12:36:32;;;;;;;8.70;4.00;;;;;;;17.70;59.86;99672.55;103773;1285;73879;-66
2022/05/25 12:39:47;;;;;;;7.50;3.50;;;;;;;17.74;59.33;99667.86;103720;1285;69467;-64
2022/05/25 12:42:45;;;;;;;8.60;3.40;;;;;;;17.82;59.22;99664.09;104258;1274;74402;-65
2022/05/25 12:49:00;;;;;;;9.50;2.80;;;;;;;17.97;60.39;99664.38;104842;1271;60480;-65
2022/05/25 12:51:48;;;;;;;9.50;3.10;;;;;;;17.95;60.97;99663.00;104917;1274;71874;-66
2022/05/25 12:54:42;;;;;;;8.20;3.00;;;;;;;17.92;61.49;99659.89;104695;1274;67803;-65
2022/05/25 12:57:56;;;;;;;10.00;2.80;;;;;;;17.88;61.33;99648.68;104684;1274;72005;-67
2022/05/25 13:01:28;;;;;;;8.40;2.90;;;;;;;17.85;62.12;99653.64;104882;1273;59297;-67
2022/05/25 13:04:37;;;;;;;7.20;2.80;;;;;;;17.88;62.24;99652.95;105010;1274;60988;-67
2022/05/25 13:07:33;;;;;;;9.70;3.20;;;;;;;17.97;62.34;99653.00;105319;1271;72920;-65
2022/05/25 13:10:41;;;;;;;11.10;2.80;;;;;;;18.07;62.59;99646.52;104844;1271;68276;-63
2022/05/25 13:13:30;;;;;;;8.00;3.00;;;;;;;18.23;61.84;99645.73;104996;1274;73002;-65
2022/05/25 13:16:51;;;;;;;7.90;2.80;;;;;;;18.40;61.15;99649.51;105019;1274;59180;-65
2022/05/25 13:19:47;;;;;;;7.10;2.90;;;;;;;18.64;61.14;99659.81;104988;1271;60520;-66
2022/05/25 13:22:34;;;;;;;9.50;3.20;;;;;;;18.92;60.18;99653.27;104634;1274;72941;-67
2022/05/25 13:25:40;;;;;;;10.00;3.00;;;;;;;19.30;58.71;99654.30;105189;1271;68440;-65
2022/05/25 13:28:42;;;;;;;8.50;2.70;;;;;;;19.55;57.04;99640.11;104929;1271;74447;-67
2022/05/25 13:32:00;;;;;;;11.30;2.80;;;;;;;19.74;57.13;99638.67;104894;1271;59844;-66
2022/05/25 13:34:47;;;;;;;8.00;2.90;;;;;;;19.82;56.25;99640.16;104958;1274;62243;-66
2022/05/25 13:37:38;;;;;;;9.60;3.40;;;;;;;19.76;55.41;99640.33;104918;1271;72702;-64
2022/05/25 13:40:36;;;;;;;11.00;3.10;;;;;;;19.68;55.73;99638.39;104918;1271;67450;-65
2022/05/25 13:43:57;;;;;;;8.80;2.60;;;;;;;19.55;56.35;99631.17;104948;1271;73668;-61
2022/05/25 13:46:44;;;;;;;13.40;3.10;;;;;;;19.35;56.93;99637.39;104716;1277;59403;-66
2022/05/25 13:49:44;;;;;;;8.20;2.60;;;;;;;19.23;57.12;99636.45;104385;1277;60705;-64
2022/05/25 13:52:36;;;;;;;7.40;2.50;;;;;;;19.13;57.29;99636.96;104379;1277;73558;-64
2022/05/25 13:55:33;;;;;;;9.40;3.00;;;;;;;19.03;57.57;99637.40;104300;1277;67947;-66